KGIC

Idaho County Airport

Grangeville, Idaho, USA
METAR KGIC 211955Z AUTO 04005KT 10SM CLR 00/M02 A3007 RMK AO1
Observed Flight Rules
Jan-21 @ 19:55 UTC (34 minutes ago) Visual Flight Rules
Wind Visibility Clouds
40° at 5 knots 10 miles
  • Clear skies
Temperatures Readings
Current 0°C / 32°F
Dewpoint -2°C / 28°F
Humidity 87%
Altimeter 30.07" Hg
Pressure 1018 hPa
Elevation 1009
METAR KGIC 211955Z AUTO 04005KT 10SM CLR 00/M02 A3007 RMK AO1
Observed Flight Rules
Jan-21 @ 19:55 UTC
(34 minutes ago)
VFR
Wind Visibility
40° at 5 knots 10 miles
Clouds
  • Clear skies
Temperature Dewpoint
0°C / 32°F -2°C / 28°F
Humidity Altimeter Pressure
87% 30.07" Hg 1018 hPa